createdAt,value
2018-08-19T00:02:10.402Z,73.50
2018-08-19T00:04:39.634Z,72.83
2018-08-19T00:07:08.690Z,73.85
2018-08-19T00:09:37.752Z,73.64
2018-08-19T00:12:07.295Z,73.86
2018-08-19T00:14:36.910Z,74.39
2018-08-19T00:17:06.195Z,73.99
2018-08-19T00:19:35.923Z,74.28
2018-08-19T00:22:05.004Z,74.66
2018-08-19T00:24:34.044Z,74.33
2018-08-19T00:27:03.261Z,75.26
2018-08-19T00:29:37.010Z,74.92
2018-08-19T00:32:06.654Z,75.53
2018-08-19T00:34:36.142Z,75.80
2018-08-19T00:37:06.327Z,75.98
2018-08-19T00:39:35.904Z,75.49
2018-08-19T00:42:06.372Z,76.15
2018-08-19T00:44:35.678Z,75.42
2018-08-19T00:47:05.051Z,76.14
2018-08-19T00:49:34.098Z,76.76
2018-08-19T00:52:03.629Z,76.15
2018-08-19T00:54:33.318Z,76.36
2018-08-19T00:57:03.597Z,76.36
2018-08-19T00:59:33.288Z,76.27
2018-08-19T01:02:02.607Z,76.74
2018-08-19T01:04:31.688Z,76.81
2018-08-19T01:07:01.795Z,76.70
2018-08-19T01:09:32.135Z,76.29
2018-08-19T01:12:01.347Z,76.55
2018-08-19T01:14:30.278Z,76.71
2018-08-19T01:16:59.403Z,76.97
2018-08-19T01:19:29.072Z,77.72
2018-08-19T01:21:58.159Z,78.22
2018-08-19T01:24:27.458Z,78.38
2018-08-19T01:26:56.455Z,78.00
2018-08-19T01:29:34.722Z,78.33
2018-08-19T01:32:09.887Z,78.69
2018-08-19T01:34:39.607Z,78.59
2018-08-19T01:37:09.222Z,78.93
2018-08-19T01:39:38.612Z,79.02
2018-08-19T01:42:08.349Z,78.69
2018-08-19T01:44:37.250Z,78.94
2018-08-19T01:47:06.149Z,79.17
2018-08-19T01:49:35.615Z,78.78
2018-08-19T01:52:05.675Z,79.01
2018-08-19T01:54:34.763Z,78.68
2018-08-19T01:57:03.899Z,79.52
2018-08-19T01:59:34.319Z,79.55
2018-08-19T02:02:04.627Z,80.18
2018-08-19T02:04:35.427Z,81.26
2018-08-19T02:07:04.439Z,79.77
2018-08-19T02:09:34.166Z,80.33
2018-08-19T02:12:03.269Z,80.20
2018-08-19T02:14:32.247Z,80.34
2018-08-19T02:17:02.217Z,81.14
2018-08-19T02:19:31.330Z,80.55
2018-08-19T02:22:00.428Z,79.90
2018-08-19T02:24:29.939Z,80.04
2018-08-19T02:26:59.035Z,80.29
2018-08-19T02:29:35.111Z,80.26
2018-08-19T02:32:05.479Z,80.07
2018-08-19T02:34:36.359Z,80.00
2018-08-19T02:37:10.751Z,79.65
2018-08-19T02:39:41.726Z,80.65
2018-08-19T02:42:26.229Z,80.82
2018-08-19T02:45:01.670Z,80.59
2018-08-19T02:47:31.263Z,81.12
2018-08-19T02:50:00.244Z,80.65
2018-08-19T02:52:31.645Z,81.66
2018-08-19T02:55:02.079Z,81.62
2018-08-19T02:57:31.908Z,81.70
2018-08-19T03:00:01.730Z,82.09
2018-08-19T03:02:34.446Z,82.54
2018-08-19T03:05:05.930Z,83.03
2018-08-19T03:07:37.068Z,82.13
2018-08-19T03:10:09.139Z,80.80
2018-08-19T03:12:38.542Z,80.39
2018-08-19T03:15:10.716Z,80.21
2018-08-19T03:17:40.519Z,80.90
2018-08-19T03:20:11.776Z,81.31
2018-08-19T03:22:40.830Z,81.31
2018-08-19T03:25:10.387Z,81.78
2018-08-19T03:27:40.407Z,81.99
2018-08-19T03:30:14.302Z,81.70
2018-08-19T03:32:49.160Z,81.85
2018-08-19T03:35:19.430Z,82.01
2018-08-19T03:37:51.277Z,81.68
2018-08-19T03:40:20.404Z,81.91
2018-08-19T03:42:49.456Z,81.60
2018-08-19T03:45:20.323Z,81.96
2018-08-19T03:47:50.527Z,81.02
2018-08-19T03:50:22.822Z,80.65
2018-08-19T03:52:53.292Z,80.51
2018-08-19T03:55:30.450Z,79.56
2018-08-19T03:58:04.578Z,78.43
2018-08-19T04:00:35.307Z,76.46
2018-08-19T04:03:13.443Z,74.66
2018-08-19T04:05:46.437Z,72.01
2018-08-19T04:08:16.034Z,69.53
2018-08-19T04:10:46.186Z,67.43
2018-08-19T04:13:36.111Z,65.66
2018-08-19T04:16:05.927Z,63.54
2018-08-19T04:18:39.271Z,61.80
2018-08-19T04:21:09.628Z,59.74
2018-08-19T04:23:41.377Z,58.05
2018-08-19T04:26:10.306Z,56.24
2018-08-19T04:28:40.538Z,54.33
2018-08-19T04:31:15.020Z,52.55
2018-08-19T04:33:45.556Z,51.03
2018-08-19T04:36:16.396Z,49.08
2018-08-19T04:38:45.652Z,48.89
2018-08-19T04:41:14.835Z,49.20
2018-08-19T04:43:44.866Z,48.11
2018-08-19T04:46:13.984Z,45.86
2018-08-19T04:48:45.057Z,45.36
2018-08-19T04:51:14.409Z,44.48
2018-08-19T04:53:43.666Z,43.06
2018-08-19T04:56:13.071Z,40.74
2018-08-19T04:58:42.206Z,39.66
2018-08-19T05:01:12.804Z,40.40
2018-08-19T05:03:45.166Z,39.17
2018-08-19T05:06:14.124Z,38.19
2018-08-19T05:08:43.758Z,36.24
2018-08-19T05:11:12.983Z,36.08
2018-08-19T05:13:42.578Z,35.81
2018-08-19T05:16:12.030Z,34.75
2018-08-19T05:18:44.703Z,35.18
2018-08-19T05:21:14.410Z,33.90
2018-08-19T05:23:43.271Z,32.71
2018-08-19T05:26:13.427Z,33.70
2018-08-19T05:28:45.457Z,33.79
2018-08-19T05:31:14.652Z,34.64
2018-08-19T05:33:44.056Z,33.56
2018-08-19T05:36:13.685Z,33.52
2018-08-19T05:38:43.836Z,33.83
2018-08-19T05:41:12.785Z,33.53
2018-08-19T05:43:41.562Z,31.76
2018-08-19T05:46:10.623Z,32.11
2018-08-19T05:48:39.551Z,31.81
2018-08-19T05:51:08.854Z,32.36
2018-08-19T05:53:42.010Z,33.15
2018-08-19T05:56:10.827Z,32.03
2018-08-19T05:58:42.059Z,31.16
2018-08-19T06:01:12.426Z,30.02
2018-08-19T06:03:41.265Z,29.70
2018-08-19T06:06:10.121Z,31.33
2018-08-19T06:08:39.083Z,30.54
2018-08-19T06:11:07.843Z,32.74
2018-08-19T06:13:36.712Z,34.47
2018-08-19T06:16:06.339Z,33.49
2018-08-19T06:18:35.893Z,32.80
2018-08-19T06:21:05.586Z,34.12
2018-08-19T06:23:35.017Z,33.58
2018-08-19T06:26:03.954Z,32.93
2018-08-19T06:28:33.540Z,32.26
2018-08-19T06:31:03.031Z,32.87
2018-08-19T06:33:32.469Z,30.79
2018-08-19T06:36:01.455Z,31.14
2018-08-19T06:38:30.855Z,30.42
2018-08-19T06:40:59.902Z,29.87
2018-08-19T06:43:28.732Z,29.92
2018-08-19T06:45:57.519Z,29.65
2018-08-19T06:48:27.139Z,28.92
2018-08-19T06:50:56.180Z,27.45
2018-08-19T06:53:30.646Z,27.88
2018-08-19T06:56:00.291Z,28.47
2018-08-19T06:58:29.485Z,29.71
2018-08-19T07:00:58.223Z,29.29
2018-08-19T07:03:27.394Z,29.86
2018-08-19T07:06:11.829Z,28.93
2018-08-19T07:08:41.498Z,29.94
2018-08-19T07:11:10.415Z,28.63
2018-08-19T07:13:39.935Z,27.31
2018-08-19T07:16:09.118Z,26.58
2018-08-19T07:18:37.944Z,26.22
2018-08-19T07:21:07.007Z,27.03
2018-08-19T07:23:36.195Z,26.67
2018-08-19T07:26:05.284Z,26.75
2018-08-19T07:28:34.416Z,26.46
2018-08-19T07:31:03.085Z,27.24
2018-08-19T07:33:32.275Z,27.69
2018-08-19T07:36:01.106Z,27.25
2018-08-19T07:38:30.255Z,27.22
2018-08-19T07:40:59.284Z,27.81
2018-08-19T07:43:28.690Z,27.86
2018-08-19T07:45:57.559Z,27.08
2018-08-19T07:48:27.277Z,28.16
2018-08-19T07:50:56.412Z,29.16
2018-08-19T07:53:25.293Z,28.02
2018-08-19T07:55:54.455Z,27.04
2018-08-19T07:58:34.424Z,28.70
2018-08-19T08:01:03.302Z,28.75
2018-08-19T08:03:32.208Z,30.63
2018-08-19T08:06:01.519Z,30.14
2018-08-19T08:08:31.121Z,29.32
2018-08-19T08:11:00.036Z,27.87
2018-08-19T08:13:29.240Z,27.08
2018-08-19T08:15:58.805Z,26.26
2018-08-19T08:18:27.803Z,25.87
2018-08-19T08:21:02.132Z,25.93
2018-08-19T08:23:31.122Z,28.09
2018-08-19T08:25:59.868Z,26.94
2018-08-19T08:28:29.191Z,27.01
2018-08-19T08:30:58.188Z,27.09
2018-08-19T08:33:27.188Z,27.73
2018-08-19T08:35:57.134Z,26.64
2018-08-19T08:38:25.982Z,26.32
2018-08-19T08:40:55.189Z,25.64
2018-08-19T08:43:24.443Z,27.32
2018-08-19T08:45:55.763Z,27.29
2018-08-19T08:48:25.585Z,26.23
2018-08-19T08:50:54.451Z,26.77
2018-08-19T08:53:26.755Z,26.75
2018-08-19T08:55:55.831Z,24.76
2018-08-19T08:58:24.825Z,25.38
2018-08-19T09:00:54.083Z,23.45
2018-08-19T09:03:23.403Z,25.14
2018-08-19T09:05:52.304Z,25.07
2018-08-19T09:08:21.215Z,25.43
2018-08-19T09:10:50.010Z,26.01
2018-08-19T09:13:19.100Z,26.97
2018-08-19T09:15:48.558Z,25.23
2018-08-19T09:18:17.559Z,22.43
2018-08-19T09:20:46.716Z,24.28
2018-08-19T09:23:16.685Z,26.39
2018-08-19T09:25:45.752Z,25.57
2018-08-19T09:28:14.811Z,26.28
2018-08-19T09:30:44.836Z,25.80
2018-08-19T09:33:14.364Z,25.21
2018-08-19T09:35:43.959Z,25.53
2018-08-19T09:38:19.307Z,25.93
2018-08-19T09:40:48.386Z,25.12
2018-08-19T09:43:17.887Z,24.49
2018-08-19T09:45:47.310Z,25.82
2018-08-19T09:48:16.628Z,25.45
2018-08-19T09:50:45.819Z,25.73
2018-08-19T09:53:15.257Z,26.00
2018-08-19T09:55:45.423Z,26.61
2018-08-19T09:58:20.811Z,25.88
2018-08-19T10:00:55.185Z,25.04
2018-08-19T10:03:24.271Z,25.07
2018-08-19T10:05:53.631Z,25.35
2018-08-19T10:08:23.278Z,25.62
2018-08-19T10:10:52.762Z,25.17
2018-08-19T10:13:21.758Z,24.71
2018-08-19T10:15:50.687Z,24.52
2018-08-19T10:18:19.715Z,25.02
2018-08-19T10:20:48.678Z,23.90
2018-08-19T10:23:17.547Z,24.71
2018-08-19T10:25:46.890Z,24.60
2018-08-19T10:28:18.664Z,24.30
2018-08-19T10:30:55.774Z,23.24
2018-08-19T10:33:24.598Z,23.26
2018-08-19T10:35:53.339Z,22.90
2018-08-19T10:38:22.220Z,22.80
2018-08-19T10:40:56.394Z,21.10
2018-08-19T10:43:26.101Z,23.33
2018-08-19T10:45:55.687Z,22.43
2018-08-19T10:48:24.931Z,21.23
2018-08-19T10:50:53.851Z,21.31
2018-08-19T10:53:28.382Z,22.46
2018-08-19T10:56:01.060Z,21.90
2018-08-19T10:58:30.035Z,20.55
2018-08-19T11:00:59.417Z,20.63
2018-08-19T11:03:29.108Z,22.27
2018-08-19T11:05:58.018Z,21.95
2018-08-19T11:08:26.987Z,21.92
2018-08-19T11:10:56.969Z,21.32
2018-08-19T11:13:26.375Z,20.93
2018-08-19T11:15:57.407Z,21.48
2018-08-19T11:18:29.286Z,22.12
2018-08-19T11:21:02.285Z,22.17
2018-08-19T11:23:31.048Z,22.05
2018-08-19T11:26:00.037Z,22.00
2018-08-19T11:28:40.107Z,21.04
2018-08-19T11:31:16.452Z,21.36
2018-08-19T11:33:46.414Z,22.74
2018-08-19T11:36:16.090Z,20.92
2018-08-19T11:38:48.684Z,20.80
2018-08-19T11:41:17.715Z,21.50
2018-08-19T11:43:48.289Z,22.01
2018-08-19T11:46:17.164Z,21.23
2018-08-19T11:48:46.479Z,22.97
2018-08-19T11:51:15.620Z,23.30
2018-08-19T11:53:44.695Z,24.67
2018-08-19T11:56:13.772Z,26.02
2018-08-19T11:58:47.098Z,26.54
2018-08-19T12:01:18.036Z,27.26
2018-08-19T12:04:12.390Z,27.41
2018-08-19T12:06:41.581Z,27.46
2018-08-19T12:09:11.363Z,27.50
2018-08-19T12:11:41.948Z,27.78
2018-08-19T12:14:13.466Z,27.19
2018-08-19T12:16:49.912Z,26.46
2018-08-19T12:19:20.601Z,26.27
2018-08-19T12:21:58.599Z,26.00
2018-08-19T12:24:33.604Z,25.46
2018-08-19T12:27:04.791Z,25.52
2018-08-19T12:29:34.762Z,24.98
2018-08-19T12:32:37.683Z,24.21
2018-08-19T12:35:06.668Z,24.71
2018-08-19T12:37:35.799Z,25.38
2018-08-19T12:40:05.813Z,25.90
2018-08-19T12:42:44.458Z,25.98
2018-08-19T12:45:13.716Z,25.57
2018-08-19T12:47:42.875Z,25.88
2018-08-19T12:50:16.079Z,26.31
2018-08-19T12:52:45.101Z,26.06
2018-08-19T12:55:16.634Z,26.41
2018-08-19T12:57:46.228Z,29.47
2018-08-19T13:00:31.725Z,32.81
2018-08-19T13:03:01.693Z,35.13
2018-08-19T13:05:30.527Z,35.65
2018-08-19T13:08:00.354Z,37.64
2018-08-19T13:10:36.918Z,40.40
2018-08-19T13:13:06.930Z,40.63
2018-08-19T13:15:35.922Z,41.41
2018-08-19T13:18:04.957Z,41.00
2018-08-19T13:20:34.125Z,41.63
2018-08-19T13:23:04.489Z,42.28
2018-08-19T13:25:34.462Z,42.75
2018-08-19T13:28:03.358Z,43.15
2018-08-19T13:30:32.218Z,45.85
2018-08-19T13:33:01.499Z,47.64
2018-08-19T13:35:31.050Z,48.56
2018-08-19T13:37:59.946Z,50.96
2018-08-19T13:40:29.103Z,50.66
2018-08-19T13:42:58.222Z,55.78
2018-08-19T13:45:27.442Z,57.01
2018-08-19T13:47:57.578Z,63.26
2018-08-19T13:50:26.576Z,64.12
2018-08-19T13:52:55.566Z,57.22
2018-08-19T13:55:24.265Z,55.40
2018-08-19T13:57:53.415Z,54.96
2018-08-19T14:00:23.966Z,54.39
2018-08-19T14:02:53.123Z,52.70
2018-08-19T14:05:22.394Z,52.34
2018-08-19T14:07:52.613Z,52.39
2018-08-19T14:10:21.539Z,47.04
2018-08-19T14:12:51.208Z,48.77
2018-08-19T14:15:20.304Z,44.61
2018-08-19T14:17:50.042Z,48.04
2018-08-19T14:20:19.115Z,50.19
2018-08-19T14:22:48.387Z,49.48
2018-08-19T14:25:17.418Z,46.21
2018-08-19T14:27:47.114Z,45.73
2018-08-19T14:30:16.123Z,46.32
2018-08-19T14:32:46.846Z,45.03
2018-08-19T14:35:16.787Z,44.32
2018-08-19T14:37:45.474Z,45.96
2018-08-19T14:40:16.777Z,46.47
2018-08-19T14:42:46.393Z,42.91
2018-08-19T14:45:15.530Z,41.08
2018-08-19T14:47:45.209Z,41.27
2018-08-19T14:50:16.208Z,40.89
2018-08-19T14:52:45.299Z,41.54
2018-08-19T14:55:14.251Z,40.73
2018-08-19T14:57:43.131Z,42.22
2018-08-19T15:00:14.106Z,40.61
2018-08-19T15:02:43.294Z,41.55
2018-08-19T15:05:16.287Z,42.66
2018-08-19T15:07:45.826Z,43.32
2018-08-19T15:10:17.976Z,43.30
2018-08-19T15:12:47.950Z,41.94
2018-08-19T15:15:17.058Z,42.83
2018-08-19T15:18:02.092Z,40.68
2018-08-19T15:20:33.136Z,40.57
2018-08-19T15:23:16.827Z,40.81
2018-08-19T15:25:46.231Z,40.41
2018-08-19T15:28:15.694Z,41.48
2018-08-19T15:30:44.635Z,40.92
2018-08-19T15:33:14.710Z,40.38
2018-08-19T15:35:44.034Z,40.84
2018-08-19T15:38:14.271Z,40.60
2018-08-19T15:40:45.005Z,39.77
2018-08-19T15:43:14.376Z,38.92
2018-08-19T15:45:44.523Z,39.68
2018-08-19T15:48:13.597Z,41.07
2018-08-19T15:50:42.610Z,41.30
2018-08-19T15:53:12.112Z,42.45
2018-08-19T15:55:41.112Z,41.70
2018-08-19T15:58:10.383Z,42.51
2018-08-19T16:00:41.180Z,42.59
2018-08-19T16:03:11.167Z,43.04
2018-08-19T16:05:40.057Z,42.92
2018-08-19T16:08:09.302Z,43.19
2018-08-19T16:10:38.163Z,42.85
2018-08-19T16:13:09.253Z,42.18
2018-08-19T16:15:39.398Z,43.10
2018-08-19T16:18:08.762Z,43.38
2018-08-19T16:20:37.890Z,43.70
2018-08-19T16:23:06.957Z,43.52
2018-08-19T16:25:36.088Z,44.04
2018-08-19T16:28:05.831Z,43.45
2018-08-19T16:30:34.742Z,43.89
2018-08-19T16:33:03.667Z,44.47
2018-08-19T16:35:32.706Z,42.90
2018-08-19T16:38:02.143Z,42.86
2018-08-19T16:40:31.320Z,42.87
2018-08-19T16:43:00.218Z,41.68
2018-08-19T16:45:29.757Z,42.86
2018-08-19T16:47:58.906Z,43.25
2018-08-19T16:50:27.874Z,43.36
2018-08-19T16:52:57.114Z,42.52
2018-08-19T16:55:25.848Z,43.38
2018-08-19T16:57:54.981Z,43.14
2018-08-19T17:00:24.207Z,43.80
2018-08-19T17:02:53.320Z,43.32
2018-08-19T17:05:31.567Z,43.70
2018-08-19T17:08:00.763Z,44.20
2018-08-19T17:10:30.243Z,43.59
2018-08-19T17:13:00.254Z,43.97
2018-08-19T17:15:30.064Z,44.98
2018-08-19T17:17:59.723Z,44.28
2018-08-19T17:20:29.730Z,44.65
2018-08-19T17:22:58.557Z,45.17
2018-08-19T17:25:27.866Z,45.56
2018-08-19T17:27:57.147Z,45.52
2018-08-19T17:30:26.141Z,44.85
2018-08-19T17:33:00.577Z,45.68
2018-08-19T17:35:30.218Z,46.03
2018-08-19T17:38:00.303Z,46.69
2018-08-19T17:40:30.623Z,46.24
2018-08-19T17:42:59.852Z,46.35
2018-08-19T17:45:28.751Z,46.63
2018-08-19T17:47:57.754Z,46.47
2018-08-19T17:50:27.919Z,47.19
2018-08-19T17:52:59.172Z,47.14
2018-08-19T17:55:28.268Z,47.29
2018-08-19T17:57:58.590Z,47.22
2018-08-19T18:00:27.780Z,46.94
2018-08-19T18:02:56.686Z,46.61
2018-08-19T18:05:25.536Z,46.51
2018-08-19T18:07:55.496Z,47.04
2018-08-19T18:10:24.907Z,46.38
2018-08-19T18:12:54.097Z,45.98
2018-08-19T18:15:23.428Z,46.84
2018-08-19T18:17:58.463Z,47.08
2018-08-19T18:20:30.436Z,46.44
2018-08-19T18:23:00.430Z,46.33
2018-08-19T18:25:29.591Z,46.63
2018-08-19T18:27:58.723Z,46.92
2018-08-19T18:30:28.545Z,47.04
2018-08-19T18:32:57.327Z,46.81
2018-08-19T18:35:26.622Z,46.90
2018-08-19T18:37:55.566Z,47.39
2018-08-19T18:40:31.315Z,47.91
2018-08-19T18:43:00.923Z,48.61
2018-08-19T18:45:30.147Z,49.25
2018-08-19T18:48:03.838Z,49.25
2018-08-19T18:50:32.937Z,49.58
2018-08-19T18:53:02.166Z,50.26
2018-08-19T18:55:31.123Z,49.76
2018-08-19T18:58:00.787Z,50.67
2018-08-19T19:00:30.099Z,50.49
2018-08-19T19:03:00.666Z,50.64
2018-08-19T19:05:39.751Z,50.81
2018-08-19T19:08:11.444Z,50.47
2018-08-19T19:10:43.944Z,51.90
2018-08-19T19:13:13.375Z,50.19
2018-08-19T19:15:42.391Z,49.92
2018-08-19T19:18:13.398Z,49.24
2018-08-19T19:20:49.584Z,51.07
2018-08-19T19:23:21.914Z,50.23
2018-08-19T19:25:51.804Z,50.51
2018-08-19T19:28:20.854Z,50.26
2018-08-19T19:30:53.893Z,50.50
2018-08-19T19:33:24.294Z,49.97
2018-08-19T19:35:53.102Z,49.61
2018-08-19T19:38:22.631Z,50.25
2018-08-19T19:40:52.052Z,50.26
2018-08-19T19:43:22.731Z,50.47
2018-08-19T19:45:53.782Z,50.20
2018-08-19T19:48:22.970Z,49.38
2018-08-19T19:50:51.970Z,50.05
2018-08-19T19:53:20.998Z,49.82
2018-08-19T19:55:50.462Z,50.80
2018-08-19T19:58:20.515Z,50.96
2018-08-19T20:00:55.144Z,50.72
2018-08-19T20:03:24.832Z,51.63
2018-08-19T20:05:53.919Z,52.19
2018-08-19T20:08:25.928Z,51.94
2018-08-19T20:10:54.770Z,52.29
2018-08-19T20:13:23.671Z,51.96
2018-08-19T20:15:52.759Z,52.29
2018-08-19T20:18:22.586Z,52.22
2018-08-19T20:20:53.299Z,52.04
2018-08-19T20:23:26.048Z,51.92
2018-08-19T20:25:55.967Z,52.41
2018-08-19T20:28:24.974Z,52.19
2018-08-19T20:30:53.693Z,52.15
2018-08-19T20:33:29.583Z,52.47
2018-08-19T20:35:58.555Z,52.85
2018-08-19T20:38:27.446Z,52.86
2018-08-19T20:40:56.909Z,52.86
2018-08-19T20:43:26.851Z,52.32
2018-08-19T20:45:56.266Z,52.68
2018-08-19T20:48:25.178Z,52.92
2018-08-19T20:50:54.052Z,52.71
2018-08-19T20:53:23.131Z,51.94
2018-08-19T20:55:52.167Z,52.32
2018-08-19T20:58:21.974Z,52.79
2018-08-19T21:00:50.727Z,52.88
2018-08-19T21:03:19.869Z,52.50
2018-08-19T21:05:48.822Z,52.53
2018-08-19T21:08:18.957Z,51.70
2018-08-19T21:10:48.664Z,51.81
2018-08-19T21:13:19.444Z,51.84
2018-08-19T21:15:53.427Z,52.01
2018-08-19T21:18:22.802Z,52.63
2018-08-19T21:20:53.438Z,52.57
2018-08-19T21:23:22.371Z,52.06
2018-08-19T21:25:56.296Z,52.89
2018-08-19T21:28:25.245Z,52.77
2018-08-19T21:30:54.525Z,52.57
2018-08-19T21:33:23.719Z,53.20
2018-08-19T21:35:54.743Z,53.05
2018-08-19T21:38:23.681Z,52.82
2018-08-19T21:40:57.102Z,54.15
2018-08-19T21:43:28.207Z,54.61
2018-08-19T21:45:57.821Z,56.30
2018-08-19T21:48:26.727Z,57.24
2018-08-19T21:50:55.926Z,57.41
2018-08-19T21:53:24.724Z,57.62
2018-08-19T21:55:54.182Z,58.08
2018-08-19T21:58:23.289Z,59.14
2018-08-19T22:00:58.898Z,59.71
2018-08-19T22:03:33.122Z,60.00
2018-08-19T22:06:06.383Z,60.80
2018-08-19T22:08:35.353Z,61.18
2018-08-19T22:11:04.439Z,62.68
2018-08-19T22:13:33.502Z,64.43
2018-08-19T22:16:03.065Z,64.90
2018-08-19T22:18:32.474Z,65.02
2018-08-19T22:21:10.964Z,64.62
2018-08-19T22:23:43.370Z,63.76
2018-08-19T22:26:14.620Z,64.77
2018-08-19T22:28:44.523Z,65.18
2018-08-19T22:31:24.575Z,65.60
2018-08-19T22:33:55.589Z,66.20
2018-08-19T22:36:25.290Z,66.07
2018-08-19T22:38:54.878Z,66.68
2018-08-19T22:41:25.254Z,66.49
2018-08-19T22:43:55.657Z,66.04
2018-08-19T22:46:25.018Z,66.03
2018-08-19T22:48:55.138Z,66.61
2018-08-19T22:51:24.665Z,67.07
2018-08-19T22:53:55.660Z,66.95
2018-08-19T22:56:24.365Z,67.46
2018-08-19T22:58:53.499Z,67.80
2018-08-19T23:01:27.137Z,67.41
2018-08-19T23:04:01.646Z,68.07
2018-08-19T23:06:31.382Z,68.78
2018-08-19T23:09:00.883Z,69.01
2018-08-19T23:11:35.787Z,69.00
2018-08-19T23:14:16.167Z,68.26
2018-08-19T23:16:45.221Z,68.22
2018-08-19T23:19:13.866Z,68.61
2018-08-19T23:21:42.771Z,68.91
2018-08-19T23:24:11.906Z,68.67
2018-08-19T23:26:41.075Z,68.43
2018-08-19T23:29:10.154Z,68.43
2018-08-19T23:31:39.116Z,68.62
2018-08-19T23:34:08.228Z,69.11
2018-08-19T23:36:36.926Z,69.68
2018-08-19T23:39:08.015Z,70.44
2018-08-19T23:41:37.183Z,70.19
2018-08-19T23:44:06.291Z,70.09
2018-08-19T23:46:35.307Z,69.82
2018-08-19T23:49:04.399Z,70.54
2018-08-19T23:51:33.683Z,71.49
2018-08-19T23:54:03.887Z,72.20
2018-08-19T23:56:33.182Z,72.23
2018-08-19T23:59:02.582Z,71.60
